sensor_id;sensor_type;location;lat;lon;timestamp;P1;durP1;ratioP1;P2;durP2;ratioP2
49444;SDS011;35323;43.080;-81.378;2023-02-01T03:44:53;4.93;;;3.55;;
49444;SDS011;35323;43.080;-81.378;2023-02-01T03:47:23;2.28;;;1.40;;
49444;SDS011;35323;43.080;-81.378;2023-02-01T03:49:53;2.58;;;2.35;;
49444;SDS011;35323;43.080;-81.378;2023-02-01T03:52:28;1.75;;;1.60;;
49444;SDS011;35323;43.080;-81.378;2023-02-01T03:54:58;6.43;;;2.92;;
49444;SDS011;35323;43.080;-81.378;2023-02-01T03:57:27;1.35;;;1.25;;
49444;SDS011;35323;43.080;-81.378;2023-02-01T04:00:03;4.68;;;2.80;;
49444;SDS011;35323;43.080;-81.378;2023-02-01T04:02:31;2.30;;;2.10;;
49444;SDS011;35323;43.080;-81.378;2023-02-01T04:04:58;6.70;;;2.08;;
49444;SDS011;35323;43.080;-81.378;2023-02-01T04:07:26;1.70;;;1.60;;
49444;SDS011;35323;43.080;-81.378;2023-02-01T04:09:54;4.53;;;2.97;;
49444;SDS011;35323;43.080;-81.378;2023-02-01T04:12:21;3.33;;;1.73;;
49444;SDS011;35323;43.080;-81.378;2023-02-01T04:14:51;1.35;;;1.25;;
49444;SDS011;35323;43.080;-81.378;2023-02-01T04:17:18;2.33;;;1.67;;
49444;SDS011;35323;43.080;-81.378;2023-02-01T04:33:13;1.33;;;1.30;;
49444;SDS011;35323;43.080;-81.378;2023-02-01T04:35:41;2.20;;;1.75;;
49444;SDS011;35323;43.080;-81.378;2023-02-01T04:54:40;22.50;;;11.65;;
49444;SDS011;35323;43.080;-81.378;2023-02-01T05:07:48;16.63;;;11.10;;
49444;SDS011;35323;43.080;-81.378;2023-02-01T05:10:16;29.85;;;10.60;;
49444;SDS011;35323;43.080;-81.378;2023-02-01T05:12:44;17.35;;;7.60;;
49444;SDS011;35323;43.080;-81.378;2023-02-01T05:15:47;19.60;;;6.25;;
49444;SDS011;35323;43.080;-81.378;2023-02-01T05:18:16;54.75;;;19.52;;
49444;SDS011;35323;43.080;-81.378;2023-02-01T05:20:44;10.15;;;8.73;;
49444;SDS011;35323;43.080;-81.378;2023-02-01T05:23:11;43.67;;;16.50;;
49444;SDS011;35323;43.080;-81.378;2023-02-01T05:25:39;41.28;;;17.85;;
49444;SDS011;35323;43.080;-81.378;2023-02-01T05:28:07;10.93;;;6.63;;
49444;SDS011;35323;43.080;-81.378;2023-02-01T05:30:34;3.38;;;3.13;;
49444;SDS011;35323;43.080;-81.378;2023-02-01T05:33:03;7.70;;;4.60;;
49444;SDS011;35323;43.080;-81.378;2023-02-01T05:35:30;36.58;;;10.38;;
49444;SDS011;35323;43.080;-81.378;2023-02-01T05:40:33;33.28;;;10.60;;
49444;SDS011;35323;43.080;-81.378;2023-02-01T05:43:01;38.08;;;10.13;;
49444;SDS011;35323;43.080;-81.378;2023-02-01T05:45:29;38.60;;;11.48;;
49444;SDS011;35323;43.080;-81.378;2023-02-01T05:47:57;29.23;;;8.77;;
49444;SDS011;35323;43.080;-81.378;2023-02-01T05:50:25;10.52;;;7.88;;
49444;SDS011;35323;43.080;-81.378;2023-02-01T05:52:52;45.03;;;16.40;;
49444;SDS011;35323;43.080;-81.378;2023-02-01T05:55:20;25.75;;;8.32;;
49444;SDS011;35323;43.080;-81.378;2023-02-01T05:57:47;22.45;;;7.00;;
49444;SDS011;35323;43.080;-81.378;2023-02-01T06:00:15;7.05;;;4.22;;
49444;SDS011;35323;43.080;-81.378;2023-02-01T06:02:43;10.85;;;5.15;;
49444;SDS011;35323;43.080;-81.378;2023-02-01T06:05:11;13.30;;;5.93;;
49444;SDS011;35323;43.080;-81.378;2023-02-01T06:07:38;24.60;;;7.97;;
49444;SDS011;35323;43.080;-81.378;2023-02-01T06:10:06;4.60;;;3.30;;
49444;SDS011;35323;43.080;-81.378;2023-02-01T06:12:34;15.23;;;5.22;;
49444;SDS011;35323;43.080;-81.378;2023-02-01T06:15:02;11.32;;;5.43;;
49444;SDS011;35323;43.080;-81.378;2023-02-01T06:17:30;7.95;;;4.95;;
49444;SDS011;35323;43.080;-81.378;2023-02-01T06:19:57;17.63;;;6.20;;
49444;SDS011;35323;43.080;-81.378;2023-02-01T06:22:25;16.48;;;9.00;;
49444;SDS011;35323;43.080;-81.378;2023-02-01T06:24:53;26.88;;;11.23;;
49444;SDS011;35323;43.080;-81.378;2023-02-01T06:27:20;14.98;;;6.60;;
49444;SDS011;35323;43.080;-81.378;2023-02-01T06:35:05;11.00;;;5.10;;
49444;SDS011;35323;43.080;-81.378;2023-02-01T06:37:32;7.75;;;4.10;;
49444;SDS011;35323;43.080;-81.378;2023-02-01T06:40:02;5.00;;;4.57;;
49444;SDS011;35323;43.080;-81.378;2023-02-01T06:42:31;10.82;;;4.65;;
49444;SDS011;35323;43.080;-81.378;2023-02-01T06:45:00;6.07;;;3.47;;
49444;SDS011;35323;43.080;-81.378;2023-02-01T06:47:28;3.88;;;3.28;;
49444;SDS011;35323;43.080;-81.378;2023-02-01T06:49:58;3.30;;;2.53;;
49444;SDS011;35323;43.080;-81.378;2023-02-01T06:52:26;12.52;;;5.53;;
49444;SDS011;35323;43.080;-81.378;2023-02-01T06:54:54;8.20;;;4.05;;
49444;SDS011;35323;43.080;-81.378;2023-02-01T06:57:21;2.20;;;2.00;;
49444;SDS011;35323;43.080;-81.378;2023-02-01T06:59:49;1.98;;;1.88;;
49444;SDS011;35323;43.080;-81.378;2023-02-01T07:02:17;2.92;;;2.70;;
49444;SDS011;35323;43.080;-81.378;2023-02-01T07:04:45;3.58;;;2.70;;
49444;SDS011;35323;43.080;-81.378;2023-02-01T07:07:12;5.13;;;2.35;;
49444;SDS011;35323;43.080;-81.378;2023-02-01T07:09:41;3.95;;;3.25;;
49444;SDS011;35323;43.080;-81.378;2023-02-01T07:12:09;2.08;;;1.95;;
49444;SDS011;35323;43.080;-81.378;2023-02-01T07:36:06;8.20;;;3.95;;
49444;SDS011;35323;43.080;-81.378;2023-02-01T07:38:34;5.10;;;4.22;;
49444;SDS011;35323;43.080;-81.378;2023-02-01T07:41:02;6.97;;;4.55;;
49444;SDS011;35323;43.080;-81.378;2023-02-01T07:43:31;8.98;;;5.00;;
49444;SDS011;35323;43.080;-81.378;2023-02-01T07:45:59;7.78;;;4.72;;
49444;SDS011;35323;43.080;-81.378;2023-02-01T07:48:26;4.63;;;4.22;;
49444;SDS011;35323;43.080;-81.378;2023-02-01T08:20:35;2.92;;;2.17;;
49444;SDS011;35323;43.080;-81.378;2023-02-01T08:23:07;2.80;;;2.17;;
49444;SDS011;35323;43.080;-81.378;2023-02-01T08:25:35;1.67;;;1.58;;
49444;SDS011;35323;43.080;-81.378;2023-02-01T08:28:03;5.15;;;2.50;;
49444;SDS011;35323;43.080;-81.378;2023-02-01T08:30:30;1.92;;;1.80;;
49444;SDS011;35323;43.080;-81.378;2023-02-01T08:32:58;2.33;;;1.77;;
49444;SDS011;35323;43.080;-81.378;2023-02-01T08:35:25;3.28;;;2.08;;
49444;SDS011;35323;43.080;-81.378;2023-02-01T08:38:08;2.13;;;2.03;;
49444;SDS011;35323;43.080;-81.378;2023-02-01T08:40:36;2.70;;;2.22;;
49444;SDS011;35323;43.080;-81.378;2023-02-01T08:43:04;4.75;;;2.97;;
49444;SDS011;35323;43.080;-81.378;2023-02-01T08:45:31;3.08;;;2.08;;
49444;SDS011;35323;43.080;-81.378;2023-02-01T08:47:59;2.78;;;1.55;;
49444;SDS011;35323;43.080;-81.378;2023-02-01T08:50:27;3.72;;;2.72;;
49444;SDS011;35323;43.080;-81.378;2023-02-01T08:52:54;3.67;;;2.25;;
49444;SDS011;35323;43.080;-81.378;2023-02-01T08:55:22;1.55;;;1.45;;
49444;SDS011;35323;43.080;-81.378;2023-02-01T08:57:50;6.35;;;3.67;;
49444;SDS011;35323;43.080;-81.378;2023-02-01T09:05:34;1.77;;;1.67;;
49444;SDS011;35323;43.080;-81.378;2023-02-01T09:08:14;1.38;;;1.27;;
49444;SDS011;35323;43.080;-81.378;2023-02-01T09:10:42;2.88;;;1.98;;
49444;SDS011;35323;43.080;-81.378;2023-02-01T09:18:34;3.20;;;2.78;;
49444;SDS011;35323;43.080;-81.378;2023-02-01T09:21:16;2.88;;;2.72;;
49444;SDS011;35323;43.080;-81.378;2023-02-01T09:23:45;4.22;;;3.83;;
49444;SDS011;35323;43.080;-81.378;2023-02-01T09:26:15;3.58;;;3.33;;
49444;SDS011;35323;43.080;-81.378;2023-02-01T09:28:48;2.72;;;2.53;;
49444;SDS011;35323;43.080;-81.378;2023-02-01T09:31:17;2.58;;;2.35;;
49444;SDS011;35323;43.080;-81.378;2023-02-01T09:33:44;4.07;;;3.65;;
49444;SDS011;35323;43.080;-81.378;2023-02-01T09:36:13;3.88;;;3.58;;
49444;SDS011;35323;43.080;-81.378;2023-02-01T09:38:41;1.48;;;1.38;;
49444;SDS011;35323;43.080;-81.378;2023-02-01T09:41:32;3.30;;;2.45;;
49444;SDS011;35323;43.080;-81.378;2023-02-01T09:46:38;2.22;;;2.08;;
49444;SDS011;35323;43.080;-81.378;2023-02-01T09:49:11;3.30;;;3.00;;
49444;SDS011;35323;43.080;-81.378;2023-02-01T09:54:15;7.78;;;3.83;;
49444;SDS011;35323;43.080;-81.378;2023-02-01T09:56:54;2.78;;;2.60;;
49444;SDS011;35323;43.080;-81.378;2023-02-01T09:59:33;3.15;;;2.22;;
49444;SDS011;35323;43.080;-81.378;2023-02-01T10:02:03;4.82;;;2.67;;
49444;SDS011;35323;43.080;-81.378;2023-02-01T10:15:53;1.77;;;1.67;;
49444;SDS011;35323;43.080;-81.378;2023-02-01T10:17:55;4.28;;;3.55;;
49444;SDS011;35323;43.080;-81.378;2023-02-01T10:20:30;2.72;;;2.53;;
49444;SDS011;35323;43.080;-81.378;2023-02-01T10:23:11;2.92;;;2.72;;
49444;SDS011;35323;43.080;-81.378;2023-02-01T10:28:36;2.72;;;2.03;;
49444;SDS011;35323;43.080;-81.378;2023-02-01T10:31:05;4.00;;;2.28;;
49444;SDS011;35323;43.080;-81.378;2023-02-01T10:33:43;2.85;;;2.65;;
49444;SDS011;35323;43.080;-81.378;2023-02-01T10:38:40;3.50;;;3.15;;
49444;SDS011;35323;43.080;-81.378;2023-02-01T10:41:22;2.70;;;2.53;;
49444;SDS011;35323;43.080;-81.378;2023-02-01T11:05:26;3.17;;;2.90;;
49444;SDS011;35323;43.080;-81.378;2023-02-01T11:07:54;4.53;;;3.33;;
49444;SDS011;35323;43.080;-81.378;2023-02-01T11:13:20;3.05;;;1.92;;
49444;SDS011;35323;43.080;-81.378;2023-02-01T11:15:54;5.90;;;3.85;;
49444;SDS011;35323;43.080;-81.378;2023-02-01T11:18:29;1.20;;;1.15;;
49444;SDS011;35323;43.080;-81.378;2023-02-01T11:20:58;2.42;;;1.98;;
49444;SDS011;35323;43.080;-81.378;2023-02-01T11:23:27;2.58;;;2.38;;
49444;SDS011;35323;43.080;-81.378;2023-02-01T11:26:07;12.35;;;3.10;;
49444;SDS011;35323;43.080;-81.378;2023-02-01T11:28:38;5.03;;;4.20;;
49444;SDS011;35323;43.080;-81.378;2023-02-01T11:31:10;3.60;;;3.30;;
49444;SDS011;35323;43.080;-81.378;2023-02-01T11:33:42;2.15;;;1.88;;
49444;SDS011;35323;43.080;-81.378;2023-02-01T11:36:17;4.05;;;2.42;;
49444;SDS011;35323;43.080;-81.378;2023-02-01T11:39:21;3.20;;;2.53;;
49444;SDS011;35323;43.080;-81.378;2023-02-01T11:41:42;5.03;;;2.83;;
49444;SDS011;35323;43.080;-81.378;2023-02-01T11:44:26;3.05;;;2.85;;
49444;SDS011;35323;43.080;-81.378;2023-02-01T12:08:42;11.15;;;4.82;;
49444;SDS011;35323;43.080;-81.378;2023-02-01T12:13:55;2.28;;;2.15;;
49444;SDS011;35323;43.080;-81.378;2023-02-01T12:19:28;3.20;;;2.67;;
49444;SDS011;35323;43.080;-81.378;2023-02-01T12:22:15;1.25;;;1.25;;
49444;SDS011;35323;43.080;-81.378;2023-02-01T12:25:04;12.90;;;5.75;;
49444;SDS011;35323;43.080;-81.378;2023-02-01T12:38:24;15.00;;;3.70;;
49444;SDS011;35323;43.080;-81.378;2023-02-01T12:46:07;3.05;;;2.13;;
49444;SDS011;35323;43.080;-81.378;2023-02-01T12:48:43;3.10;;;2.92;;
49444;SDS011;35323;43.080;-81.378;2023-02-01T12:51:17;4.35;;;3.28;;
49444;SDS011;35323;43.080;-81.378;2023-02-01T12:59:02;2.67;;;2.50;;
49444;SDS011;35323;43.080;-81.378;2023-02-01T13:01:41;3.08;;;2.88;;
49444;SDS011;35323;43.080;-81.378;2023-02-01T13:12:15;2.45;;;2.25;;
49444;SDS011;35323;43.080;-81.378;2023-02-01T13:15:01;3.53;;;2.58;;
49444;SDS011;35323;43.080;-81.378;2023-02-01T13:17:31;4.82;;;3.13;;
49444;SDS011;35323;43.080;-81.378;2023-02-01T18:28:34;2.78;;;2.58;;
49444;SDS011;35323;43.080;-81.378;2023-02-01T18:39:01;4.30;;;3.63;;
49444;SDS011;35323;43.080;-81.378;2023-02-01T19:55:25;11.15;;;4.78;;
49444;SDS011;35323;43.080;-81.378;2023-02-01T19:57:53;10.15;;;4.90;;
49444;SDS011;35323;43.080;-81.378;2023-02-01T20:00:22;6.72;;;5.60;;
49444;SDS011;35323;43.080;-81.378;2023-02-01T20:02:52;7.15;;;3.58;;
49444;SDS011;35323;43.080;-81.378;2023-02-01T20:40:19;5.85;;;5.35;;
49444;SDS011;35323;43.080;-81.378;2023-02-01T21:05:15;9.25;;;4.40;;
49444;SDS011;35323;43.080;-81.378;2023-02-01T23:28:46;4.28;;;3.53;;
